createdAt,value
2023-01-19T00:00:51.394Z,99284.97
2023-01-19T00:03:18.425Z,99289.16
2023-01-19T00:05:45.568Z,99300.69
2023-01-19T00:08:15.453Z,99292.22
2023-01-19T00:10:44.777Z,99292.22
2023-01-19T00:13:11.777Z,99289.75
2023-01-19T00:15:38.560Z,99292.44
2023-01-19T00:18:05.700Z,99288.41
2023-01-19T00:20:32.809Z,99285.25
2023-01-19T00:22:59.964Z,99281.91
2023-01-19T00:25:27.045Z,99279.47
2023-01-19T00:27:53.999Z,99280.31
2023-01-19T00:30:20.711Z,99286.97
2023-01-19T00:32:47.423Z,99285.44
2023-01-19T00:35:14.249Z,99283.91
2023-01-19T00:37:41.011Z,99289.75
2023-01-19T00:40:08.678Z,99278.13
2023-01-19T00:42:41.064Z,99283.34
2023-01-19T00:45:09.860Z,99294.19
2023-01-19T00:47:36.627Z,99287.66
2023-01-19T00:50:03.669Z,99284.38
2023-01-19T00:52:30.382Z,99286.97
2023-01-19T00:54:57.088Z,99283.81
2023-01-19T00:57:23.856Z,99283.81
2023-01-19T00:59:50.506Z,99287.19
2023-01-19T01:02:17.474Z,99277.94
2023-01-19T01:04:44.270Z,99284.75
2023-01-19T01:07:10.980Z,99287.19
2023-01-19T01:09:37.664Z,99286.41
2023-01-19T01:12:04.708Z,99296.41
2023-01-19T01:14:32.899Z,99293.91
2023-01-19T01:17:00.547Z,99289.69
2023-01-19T01:19:27.378Z,99282.38
2023-01-19T01:21:55.403Z,99286.50
2023-01-19T01:24:22.344Z,99298.31
2023-01-19T01:26:48.996Z,99297.47
2023-01-19T01:29:15.763Z,99296.78
2023-01-19T01:31:42.468Z,99292.66
2023-01-19T01:34:09.184Z,99302.66
2023-01-19T01:36:36.057Z,99301.00
2023-01-19T01:39:03.651Z,99300.25
2023-01-19T01:41:30.570Z,99298.72
2023-01-19T01:43:58.846Z,99299.38
2023-01-19T01:46:27.116Z,99302.16
2023-01-19T01:49:13.346Z,99290.44
2023-01-19T01:51:47.026Z,99285.72
2023-01-19T01:54:19.377Z,99280.72
2023-01-19T01:56:52.431Z,99279.00
2023-01-19T01:59:34.599Z,99279.97
2023-01-19T02:02:34.459Z,99279.19
2023-01-19T02:05:12.207Z,99281.88
2023-01-19T02:08:05.318Z,99277.66
2023-01-19T02:10:52.235Z,99277.75
2023-01-19T02:13:22.982Z,99270.91
2023-01-19T02:16:02.933Z,99280.34
2023-01-19T02:18:31.347Z,99272.75
2023-01-19T02:21:22.688Z,99279.47
2023-01-19T02:23:54.542Z,99276.88
2023-01-19T02:26:30.989Z,99276.81
2023-01-19T02:29:02.949Z,99282.84
2023-01-19T02:31:31.592Z,99272.84
2023-01-19T02:34:00.538Z,99275.25
2023-01-19T02:36:35.182Z,99275.34
2023-01-19T02:39:04.527Z,99261.97
2023-01-19T02:41:38.779Z,99260.56
2023-01-19T02:44:08.285Z,99273.13
2023-01-19T02:46:35.747Z,99258.06
2023-01-19T02:49:02.641Z,99254.88
2023-01-19T02:51:29.608Z,99252.56
2023-01-19T02:54:17.283Z,99262.53
2023-01-19T02:57:12.289Z,99258.50
2023-01-19T03:00:03.212Z,99247.75
2023-01-19T03:02:52.927Z,99247.75
2023-01-19T03:05:48.410Z,99251.00
2023-01-19T03:08:26.805Z,99246.00
2023-01-19T03:11:06.204Z,99249.38
2023-01-19T03:13:44.062Z,99246.88
2023-01-19T03:16:24.954Z,99256.19
2023-01-19T03:18:55.571Z,99257.06
2023-01-19T03:21:26.599Z,99254.56
2023-01-19T03:23:56.924Z,99259.66
2023-01-19T03:26:29.726Z,99255.59
2023-01-19T03:29:00.295Z,99253.97
2023-01-19T03:31:31.983Z,99258.09
2023-01-19T03:34:06.786Z,99259.84
2023-01-19T03:36:42.709Z,99273.31
2023-01-19T03:39:11.261Z,99264.06
2023-01-19T03:41:39.655Z,99263.22
2023-01-19T03:44:07.515Z,99268.22
2023-01-19T03:46:34.667Z,99263.31
2023-01-19T03:49:01.185Z,99269.16
2023-01-19T03:51:27.830Z,99268.31
2023-01-19T03:53:54.305Z,99269.16
2023-01-19T03:56:25.385Z,99278.38
2023-01-19T03:58:56.284Z,99267.34
2023-01-19T04:01:25.030Z,99268.38
2023-01-19T04:03:53.042Z,99270.97
2023-01-19T04:06:20.557Z,99275.03
2023-01-19T04:08:51.229Z,99275.88
2023-01-19T04:11:17.875Z,99270.03
2023-01-19T04:13:44.807Z,99270.81
2023-01-19T04:16:12.289Z,99271.66
2023-01-19T04:18:39.000Z,99271.66
2023-01-19T04:21:07.488Z,99267.41
2023-01-19T04:23:34.766Z,99266.66
2023-01-19T04:26:03.856Z,99273.47
2023-01-19T04:28:30.464Z,99261.56
2023-01-19T04:30:57.223Z,99270.19
2023-01-19T04:33:24.354Z,99271.94
2023-01-19T04:35:54.417Z,99268.59
2023-01-19T04:38:21.621Z,99255.72
2023-01-19T04:40:52.769Z,99269.44
2023-01-19T04:43:20.498Z,99272.22
2023-01-19T04:45:47.588Z,99276.25
2023-01-19T04:48:14.741Z,99274.63
2023-01-19T04:50:41.929Z,99270.31
2023-01-19T04:53:08.776Z,99269.72
2023-01-19T04:55:37.246Z,99272.91
2023-01-19T04:58:04.119Z,99265.31
2023-01-19T05:00:31.333Z,99270.41
2023-01-19T05:02:58.263Z,99270.31
2023-01-19T05:05:25.080Z,99271.09
2023-01-19T05:07:51.807Z,99279.34
2023-01-19T05:10:20.198Z,99275.13
2023-01-19T05:12:46.891Z,99281.78
2023-01-19T05:15:13.649Z,99286.66
2023-01-19T05:17:40.290Z,99281.56
2023-01-19T05:20:09.403Z,99285.81
2023-01-19T05:22:36.141Z,99276.28
2023-01-19T05:25:03.044Z,99287.41
2023-01-19T05:27:29.795Z,99304.91
2023-01-19T05:29:56.532Z,99294.63
2023-01-19T05:32:23.196Z,99299.63
2023-01-19T05:34:49.970Z,99305.41
2023-01-19T05:37:16.676Z,99304.63
2023-01-19T05:39:43.361Z,99316.28
2023-01-19T05:42:10.113Z,99311.28
2023-01-19T05:44:36.793Z,99302.06
2023-01-19T05:47:03.592Z,99317.81
2023-01-19T05:49:30.401Z,99316.09
2023-01-19T05:51:57.076Z,99322.75
2023-01-19T05:54:23.824Z,99319.91
2023-01-19T05:56:50.531Z,99331.00
2023-01-19T05:59:23.809Z,99330.25
2023-01-19T06:01:54.272Z,99335.13
2023-01-19T06:04:21.374Z,99333.31
2023-01-19T06:06:48.669Z,99335.81
2023-01-19T06:09:15.241Z,99331.66
2023-01-19T06:11:41.817Z,99333.09
2023-01-19T06:14:09.869Z,99338.19
2023-01-19T06:16:36.586Z,99342.41
2023-01-19T06:19:03.194Z,99345.59
2023-01-19T06:21:29.817Z,99346.38
2023-01-19T06:23:56.313Z,99349.72
2023-01-19T06:26:23.134Z,99349.56
2023-01-19T06:28:51.172Z,99344.63
2023-01-19T06:31:18.126Z,99352.91
2023-01-19T06:33:44.639Z,99353.78
2023-01-19T06:36:11.140Z,99352.06
2023-01-19T06:38:37.661Z,99356.16
2023-01-19T06:41:04.756Z,99353.66
2023-01-19T06:43:31.823Z,99360.50
2023-01-19T06:46:00.456Z,99362.06
2023-01-19T06:48:27.093Z,99367.13
2023-01-19T06:50:53.617Z,99361.25
2023-01-19T06:53:22.181Z,99372.22
2023-01-19T06:55:48.824Z,99372.91
2023-01-19T06:58:15.566Z,99376.38
2023-01-19T07:00:42.883Z,99374.84
2023-01-19T07:03:09.963Z,99375.78
2023-01-19T07:05:36.754Z,99368.75
2023-01-19T07:08:03.955Z,99372.34
2023-01-19T07:11:21.618Z,99384.84
2023-01-19T07:13:17.067Z,99398.38
2023-01-19T07:15:44.198Z,99395.69
2023-01-19T07:18:10.704Z,99399.16
2023-01-19T07:20:38.110Z,99394.16
2023-01-19T07:23:04.941Z,99401.53
2023-01-19T07:25:31.861Z,99404.25
2023-01-19T07:27:59.992Z,99406.75
2023-01-19T07:30:26.840Z,99415.28
2023-01-19T07:32:58.158Z,99420.13
2023-01-19T07:35:25.302Z,99421.81
2023-01-19T07:37:51.811Z,99427.59
2023-01-19T07:40:18.432Z,99439.53
2023-01-19T07:42:50.290Z,99435.22
2023-01-19T07:45:17.499Z,99430.28
2023-01-19T07:47:44.724Z,99435.97
2023-01-19T07:50:12.833Z,99437.22
2023-01-19T07:52:39.635Z,99437.78
2023-01-19T07:55:06.533Z,99443.09
2023-01-19T07:57:33.036Z,99452.34
2023-01-19T07:59:59.947Z,99453.28
2023-01-19T08:02:27.018Z,99456.44
2023-01-19T08:04:53.892Z,99458.38
2023-01-19T08:07:20.669Z,99457.63
2023-01-19T08:09:47.384Z,99459.34
2023-01-19T08:12:14.120Z,99468.59
2023-01-19T08:14:40.820Z,99472.13
2023-01-19T08:17:07.508Z,99463.66
2023-01-19T08:19:34.216Z,99466.84
2023-01-19T08:22:01.022Z,99478.88
2023-01-19T08:24:29.043Z,99483.88
2023-01-19T08:27:00.240Z,99483.09
2023-01-19T08:29:29.624Z,99483.09
2023-01-19T08:31:58.859Z,99489.94
2023-01-19T08:34:25.987Z,99496.56
2023-01-19T08:36:52.573Z,99488.88
2023-01-19T08:39:19.114Z,99496.69
2023-01-19T08:41:45.604Z,99494.84
2023-01-19T08:44:12.117Z,99496.56
2023-01-19T08:46:38.720Z,99499.19
2023-01-19T08:49:05.278Z,99505.81
2023-01-19T08:51:31.877Z,99507.53
2023-01-19T08:53:58.464Z,99517.53
2023-01-19T08:56:25.861Z,99515.81
2023-01-19T08:59:07.634Z,99517.53
2023-01-19T09:01:37.178Z,99518.09
2023-01-19T09:04:04.021Z,99522.44
2023-01-19T09:06:30.552Z,99528.22
2023-01-19T09:08:57.785Z,99522.44
2023-01-19T09:11:24.323Z,99533.41
2023-01-19T09:13:51.058Z,99530.16
2023-01-19T09:16:17.611Z,99528.41
2023-01-19T09:18:45.874Z,99532.72
2023-01-19T09:21:12.565Z,99531.00
2023-01-19T09:23:39.190Z,99537.84
2023-01-19T09:26:07.236Z,99539.59
2023-01-19T09:28:34.144Z,99539.59
2023-01-19T09:31:05.445Z,99543.81
2023-01-19T09:33:32.066Z,99539.66
2023-01-19T09:35:58.662Z,99544.00
2023-01-19T09:38:25.837Z,99536.41
2023-01-19T09:40:55.659Z,99545.75
2023-01-19T09:43:32.627Z,99544.28
2023-01-19T09:46:02.545Z,99550.84
2023-01-19T09:48:28.981Z,99555.19
2023-01-19T09:51:00.908Z,99560.25
2023-01-19T09:53:53.226Z,99560.25
2023-01-19T09:56:21.086Z,99560.38
2023-01-19T09:58:49.578Z,99557.97
2023-01-19T10:01:28.812Z,99557.41
2023-01-19T10:04:30.068Z,99565.09
2023-01-19T10:07:06.580Z,99566.94
2023-01-19T10:09:44.374Z,99569.44
2023-01-19T10:12:21.052Z,99568.69
2023-01-19T10:15:18.018Z,99563.75
2023-01-19T10:18:16.395Z,99567.13
2023-01-19T10:20:49.365Z,99563.97
2023-01-19T10:23:25.038Z,99571.47
2023-01-19T10:25:52.245Z,99566.34
2023-01-19T10:28:23.680Z,99567.13
2023-01-19T10:30:51.452Z,99573.19
2023-01-19T10:33:18.152Z,99574.91
2023-01-19T10:35:45.204Z,99575.88
2023-01-19T10:38:14.317Z,99579.28
2023-01-19T10:40:59.345Z,99585.25
2023-01-19T10:43:37.754Z,99586.00
2023-01-19T10:46:18.080Z,99583.50
2023-01-19T10:48:48.948Z,99588.59
2023-01-19T10:51:16.261Z,99586.00
2023-01-19T10:53:53.241Z,99586.09
2023-01-19T10:56:24.754Z,99596.28
2023-01-19T10:58:51.541Z,99598.69
2023-01-19T11:01:21.814Z,99595.31
2023-01-19T11:03:48.740Z,99594.56
2023-01-19T11:06:21.121Z,99593.13
2023-01-19T11:08:52.577Z,99600.84
2023-01-19T11:11:24.615Z,99594.09
2023-01-19T11:14:10.615Z,99595.91
2023-01-19T11:16:38.865Z,99603.63
2023-01-19T11:19:14.556Z,99606.88
2023-01-19T11:21:41.085Z,99595.22
2023-01-19T11:24:10.875Z,99592.66
2023-01-19T11:26:44.208Z,99596.19
2023-01-19T11:29:37.195Z,99600.47
2023-01-19T11:32:19.031Z,99598.81
2023-01-19T11:34:45.561Z,99601.31
2023-01-19T11:37:30.509Z,99604.88
2023-01-19T11:39:59.835Z,99603.34
2023-01-19T11:42:30.373Z,99604.88
2023-01-19T11:45:13.069Z,99607.41
2023-01-19T11:47:45.045Z,99608.44
2023-01-19T11:50:25.309Z,99612.75
2023-01-19T11:52:59.154Z,99616.34
2023-01-19T11:55:39.676Z,99620.78
2023-01-19T11:58:06.462Z,99619.13
2023-01-19T12:00:44.536Z,99612.00
2023-01-19T12:03:34.611Z,99621.63
2023-01-19T12:06:05.749Z,99618.84
2023-01-19T12:08:39.753Z,99617.41
2023-01-19T12:11:09.286Z,99619.59
2023-01-19T12:13:37.501Z,99613.94
2023-01-19T12:16:23.711Z,99615.84
2023-01-19T12:19:03.573Z,99618.16
2023-01-19T12:21:30.115Z,99628.38
2023-01-19T12:24:05.619Z,99624.25
2023-01-19T12:26:38.382Z,99627.31
2023-01-19T12:29:11.199Z,99625.22
2023-01-19T12:31:39.323Z,99629.63
2023-01-19T12:34:27.172Z,99638.09
2023-01-19T12:36:59.756Z,99628.88
2023-01-19T12:39:26.568Z,99631.75
2023-01-19T12:42:13.088Z,99624.53
2023-01-19T12:44:41.509Z,99624.72
2023-01-19T12:47:12.914Z,99644.16
2023-01-19T12:49:45.560Z,99629.25
2023-01-19T12:52:28.867Z,99633.16
2023-01-19T12:55:02.136Z,99632.38
2023-01-19T12:57:38.252Z,99636.63
2023-01-19T13:00:23.895Z,99645.88
2023-01-19T13:02:55.592Z,99647.41
2023-01-19T13:05:33.472Z,99656.69
2023-01-19T13:08:03.224Z,99654.75
2023-01-19T13:11:02.191Z,99653.97
2023-01-19T13:13:38.578Z,99652.44
2023-01-19T13:16:20.515Z,99649.91
2023-01-19T13:18:55.424Z,99631.03
2023-01-19T13:21:34.656Z,99632.56
2023-01-19T13:24:03.877Z,99628.41
2023-01-19T13:26:33.418Z,99638.81
2023-01-19T13:29:08.481Z,99652.91
2023-01-19T13:31:37.372Z,99653.31
2023-01-19T13:34:11.035Z,99662.25
2023-01-19T13:36:43.452Z,99666.41
2023-01-19T13:39:21.721Z,99674.78
2023-01-19T13:41:52.099Z,99676.44
2023-01-19T13:44:25.937Z,99676.44
2023-01-19T13:46:53.920Z,99677.56
2023-01-19T13:49:35.118Z,99678.03
2023-01-19T13:52:05.395Z,99684.22
2023-01-19T13:54:31.926Z,99678.97
2023-01-19T13:56:58.416Z,99684.53
2023-01-19T13:59:24.972Z,99683.78
2023-01-19T14:01:54.125Z,99693.13
2023-01-19T14:04:30.002Z,99690.78
2023-01-19T14:07:00.756Z,99696.69
2023-01-19T14:09:27.311Z,99707.00
2023-01-19T14:12:17.662Z,99703.44
2023-01-19T14:14:47.217Z,99710.00
2023-01-19T14:17:21.785Z,99706.63
2023-01-19T14:19:56.720Z,99715.88
2023-01-19T14:22:45.735Z,99717.41
2023-01-19T14:25:32.298Z,99723.91
2023-01-19T14:28:42.159Z,99725.56
2023-01-19T14:31:24.080Z,99732.59
2023-01-19T14:33:53.636Z,99732.41
2023-01-19T14:36:36.081Z,99735.50
2023-01-19T14:39:04.777Z,99736.19
2023-01-19T14:41:47.817Z,99739.53
2023-01-19T14:44:31.905Z,99748.59
2023-01-19T14:46:59.544Z,99744.38
2023-01-19T14:49:40.022Z,99748.44
2023-01-19T14:52:23.551Z,99750.72
2023-01-19T14:54:50.668Z,99755.84
2023-01-19T14:57:17.172Z,99758.25
2023-01-19T14:59:48.336Z,99761.72
2023-01-19T15:02:16.012Z,99760.97
2023-01-19T15:04:42.540Z,99763.66
2023-01-19T15:07:17.419Z,99762.09
2023-01-19T15:10:05.559Z,99770.50
2023-01-19T15:12:32.111Z,99766.25
2023-01-19T15:14:58.624Z,99772.81
2023-01-19T15:17:28.103Z,99773.50
2023-01-19T15:19:56.149Z,99776.69
2023-01-19T15:22:26.741Z,99783.13
2023-01-19T15:24:57.366Z,99791.91
2023-01-19T15:27:24.219Z,99784.88
2023-01-19T15:29:50.701Z,99792.09
2023-01-19T15:32:17.162Z,99795.75
2023-01-19T15:34:43.684Z,99794.38
2023-01-19T15:37:10.220Z,99793.13
2023-01-19T15:39:36.743Z,99802.09
2023-01-19T15:42:03.715Z,99807.78
2023-01-19T15:44:30.467Z,99803.22
2023-01-19T15:46:57.673Z,99814.66
2023-01-19T15:49:24.621Z,99812.75
2023-01-19T15:51:54.668Z,99815.81
2023-01-19T15:54:23.967Z,99816.25
2023-01-19T15:56:52.585Z,99816.75
2023-01-19T15:59:19.316Z,99823.28
2023-01-19T16:01:46.119Z,99822.97
2023-01-19T16:04:13.186Z,99827.75
2023-01-19T16:06:40.155Z,99828.41
2023-01-19T16:09:07.639Z,99833.22
2023-01-19T16:11:35.169Z,99833.91
2023-01-19T16:14:02.378Z,99844.56
2023-01-19T16:16:29.338Z,99846.00
2023-01-19T16:18:56.537Z,99849.91
2023-01-19T16:21:24.008Z,99845.38
2023-01-19T16:23:51.319Z,99857.75
2023-01-19T16:26:30.596Z,99849.28
2023-01-19T16:28:59.753Z,99851.47
2023-01-19T16:31:27.124Z,99867.25
2023-01-19T16:33:53.789Z,99870.44
2023-01-19T16:36:27.262Z,99869.34
2023-01-19T16:38:54.753Z,99871.63
2023-01-19T16:41:21.507Z,99875.75
2023-01-19T16:43:54.534Z,99872.06
2023-01-19T16:46:24.368Z,99878.50
2023-01-19T16:48:51.965Z,99884.91
2023-01-19T16:51:19.723Z,99890.44
2023-01-19T16:53:48.822Z,99885.25
2023-01-19T16:56:15.552Z,99895.78
2023-01-19T16:58:42.889Z,99894.69
2023-01-19T17:01:20.028Z,99903.72
2023-01-19T17:03:47.361Z,99896.88
2023-01-19T17:06:17.997Z,99900.03
2023-01-19T17:08:44.841Z,99910.69
2023-01-19T17:11:14.614Z,99912.19
2023-01-19T17:13:41.447Z,99912.72
2023-01-19T17:16:09.240Z,99918.38
2023-01-19T17:18:37.791Z,99921.66
2023-01-19T17:21:07.157Z,99919.78
2023-01-19T17:23:36.055Z,99924.44
2023-01-19T17:26:04.411Z,99931.75
2023-01-19T17:28:31.431Z,99938.13
2023-01-19T17:31:06.047Z,99926.06
2023-01-19T17:33:33.561Z,99931.94
2023-01-19T17:36:09.835Z,99935.09
2023-01-19T17:38:36.948Z,99936.59
2023-01-19T17:41:14.904Z,99938.97
2023-01-19T17:43:41.988Z,99944.75
2023-01-19T17:46:08.978Z,99949.53
2023-01-19T17:48:35.707Z,99947.56
2023-01-19T17:51:06.604Z,99953.28
2023-01-19T17:53:35.584Z,99959.06
2023-01-19T17:56:06.673Z,99964.72
2023-01-19T17:58:33.605Z,99959.38
2023-01-19T18:01:08.452Z,99970.22
2023-01-19T18:03:35.217Z,99969.03
2023-01-19T18:06:01.891Z,99972.13
2023-01-19T18:08:28.548Z,99975.41
2023-01-19T18:10:57.042Z,99969.31
2023-01-19T18:13:24.572Z,99970.94
2023-01-19T18:15:52.060Z,99971.72
2023-01-19T18:18:19.122Z,99977.56
2023-01-19T18:20:45.828Z,99975.94
2023-01-19T18:23:13.524Z,99986.16
2023-01-19T18:25:40.354Z,99985.06
2023-01-19T18:28:07.427Z,99989.94
2023-01-19T18:30:35.592Z,99993.94
2023-01-19T18:33:02.683Z,99998.94
2023-01-19T18:35:29.550Z,100000.56
2023-01-19T18:37:58.373Z,100001.41
2023-01-19T18:40:25.683Z,100006.31
2023-01-19T18:42:52.361Z,100007.72
2023-01-19T18:45:19.057Z,100004.22
2023-01-19T18:47:45.738Z,100008.34
2023-01-19T18:50:14.230Z,100006.59
2023-01-19T18:52:41.085Z,100013.22
2023-01-19T18:55:08.109Z,100003.88
2023-01-19T18:57:35.655Z,100007.88
2023-01-19T19:00:04.053Z,100007.00
2023-01-19T19:02:30.789Z,100015.25
2023-01-19T19:04:57.448Z,100012.53
2023-01-19T19:07:24.537Z,100013.94
2023-01-19T19:09:51.262Z,100017.94
2023-01-19T19:12:17.963Z,100015.94
2023-01-19T19:14:44.679Z,100027.44
2023-01-19T19:17:11.330Z,100024.69
2023-01-19T19:19:38.188Z,100028.59
2023-01-19T19:22:04.964Z,100029.31
2023-01-19T19:24:31.688Z,100029.09
2023-01-19T19:26:58.458Z,100024.09
2023-01-19T19:29:25.157Z,100027.25
2023-01-19T19:31:51.817Z,100030.38
2023-01-19T19:34:18.749Z,100031.88
2023-01-19T19:36:46.022Z,100035.00
2023-01-19T19:39:12.774Z,100043.22
2023-01-19T19:41:39.565Z,100041.13
2023-01-19T19:44:06.264Z,100047.75
2023-01-19T19:46:32.997Z,100043.28
2023-01-19T19:48:59.735Z,100046.63
2023-01-19T19:51:28.062Z,100045.00
2023-01-19T19:53:56.762Z,100043.28
2023-01-19T19:56:25.161Z,100047.38
2023-01-19T19:58:54.694Z,100057.25
2023-01-19T20:01:27.003Z,100052.75
2023-01-19T20:03:54.516Z,100057.75
2023-01-19T20:06:25.323Z,100051.78
2023-01-19T20:08:53.738Z,100054.75
2023-01-19T20:11:23.285Z,100063.00
2023-01-19T20:13:50.710Z,100062.66
2023-01-19T20:16:21.513Z,100063.28
2023-01-19T20:18:53.926Z,100064.66
2023-01-19T20:21:24.671Z,100060.38
2023-01-19T20:23:53.015Z,100061.91
2023-01-19T20:26:22.808Z,100076.88
2023-01-19T20:28:49.590Z,100074.13
2023-01-19T20:31:19.136Z,100082.72
2023-01-19T20:33:48.303Z,100086.09
2023-01-19T20:36:15.266Z,100088.44
2023-01-19T20:38:42.706Z,100091.84
2023-01-19T20:41:11.062Z,100095.84
2023-01-19T20:43:38.081Z,100092.34
2023-01-19T20:46:05.318Z,100085.34
2023-01-19T20:48:32.093Z,100100.31
2023-01-19T20:51:00.633Z,100105.16
2023-01-19T20:53:28.489Z,100107.44
2023-01-19T20:55:55.198Z,100107.66
2023-01-19T20:58:22.967Z,100106.66
2023-01-19T21:00:50.269Z,100106.66
2023-01-19T21:03:17.188Z,100116.78
2023-01-19T21:05:46.537Z,100120.13
2023-01-19T21:08:14.703Z,100123.50
2023-01-19T21:10:41.953Z,100127.13
2023-01-19T21:13:08.832Z,100129.59
2023-01-19T21:15:35.610Z,100131.47
2023-01-19T21:18:02.638Z,100137.47
2023-01-19T21:20:32.917Z,100138.31
2023-01-19T21:22:59.634Z,100136.09
2023-01-19T21:25:26.297Z,100144.44
2023-01-19T21:27:53.024Z,100152.81
2023-01-19T21:30:19.801Z,100149.69
2023-01-19T21:32:46.547Z,100148.19
2023-01-19T21:35:13.615Z,100153.44
2023-01-19T21:37:40.486Z,100152.03
2023-01-19T21:40:07.809Z,100158.03
2023-01-19T21:42:34.491Z,100166.53
2023-01-19T21:45:01.188Z,100167.53
2023-01-19T21:47:27.867Z,100172.63
2023-01-19T21:49:54.794Z,100178.50
2023-01-19T21:52:21.463Z,100175.88
2023-01-19T21:54:48.141Z,100183.50
2023-01-19T21:57:15.204Z,100183.63
2023-01-19T21:59:41.981Z,100190.34
2023-01-19T22:02:11.592Z,100188.72
2023-01-19T22:04:39.368Z,100186.97
2023-01-19T22:07:06.544Z,100190.56
2023-01-19T22:09:34.998Z,100194.84
2023-01-19T22:12:02.068Z,100205.69
2023-01-19T22:14:29.083Z,100196.47
2023-01-19T22:16:55.835Z,100205.69
2023-01-19T22:19:22.741Z,100211.44
2023-01-19T22:21:49.407Z,100207.19
2023-01-19T22:24:16.052Z,100217.16
2023-01-19T22:26:42.780Z,100210.31
2023-01-19T22:29:11.256Z,100214.28
2023-01-19T22:31:39.100Z,100213.28
2023-01-19T22:34:10.176Z,100218.56
2023-01-19T22:36:38.022Z,100227.63
2023-01-19T22:39:08.389Z,100230.03
2023-01-19T22:41:40.470Z,100228.13
2023-01-19T22:44:11.682Z,100229.75
2023-01-19T22:46:38.871Z,100245.34
2023-01-19T22:49:07.945Z,100240.34
2023-01-19T22:51:35.599Z,100249.47
2023-01-19T22:54:02.902Z,100247.47
2023-01-19T22:56:31.655Z,100253.06
2023-01-19T22:58:59.407Z,100256.19
2023-01-19T23:01:29.107Z,100248.34
2023-01-19T23:03:56.088Z,100249.19
2023-01-19T23:06:25.703Z,100259.19
2023-01-19T23:08:54.860Z,100252.31
2023-01-19T23:11:27.049Z,100253.19
2023-01-19T23:13:53.986Z,100261.44
2023-01-19T23:16:20.813Z,100260.44
2023-01-19T23:18:51.759Z,100263.78
2023-01-19T23:21:20.226Z,100263.78
2023-01-19T23:23:46.821Z,100266.13
2023-01-19T23:26:18.444Z,100270.25
2023-01-19T23:28:46.241Z,100271.59
2023-01-19T23:31:14.117Z,100276.59
2023-01-19T23:33:41.586Z,100283.97
2023-01-19T23:36:08.421Z,100280.56
2023-01-19T23:38:34.925Z,100277.22
2023-01-19T23:41:01.418Z,100282.97
2023-01-19T23:43:27.894Z,100292.94
2023-01-19T23:45:54.420Z,100284.69
2023-01-19T23:48:21.163Z,100289.69
2023-01-19T23:50:47.712Z,100287.94
2023-01-19T23:53:14.207Z,100279.72
2023-01-19T23:55:40.702Z,100278.84
2023-01-19T23:58:07.221Z,100286.56
